Time;durP1;ratioP1;P1;durP2;ratioP2;P2;SDS_P1;SDS_P2;PMS_P1;PMS_P2;Temp;Humidity;BMP_temperature;BMP_pressure;BME280_temperature;BME280_humidity;BME280_pressure;Samples;Min_cycle;Max_cycle;Signal;HPM_P1;HPM_P2
2023/04/21 00:00:47;;;;;;;21.05;13.15;;;;;;;;;;5016072;28;20025;-72
2023/04/21 00:03:12;;;;;;;18.77;14.00;;;;;;;;;;5017188;28;20124;-74
2023/04/21 00:05:41;;;;;;;24.42;17.10;;;;;;;;;;5005082;28;20449;-73
2023/04/21 00:08:06;;;;;;;27.35;18.98;;;;;;;;;;5016322;28;20029;-72
2023/04/21 00:10:32;;;;;;;22.75;17.85;;;;;;;;;;5013969;28;20525;-74
2023/04/21 00:12:57;;;;;;;23.52;17.05;;;;;;;;;;5002280;28;20048;-74
2023/04/21 00:15:22;;;;;;;27.92;22.73;;;;;;;;;;5016684;28;20093;-72
2023/04/21 00:17:48;;;;;;;17.98;14.73;;;;;;;;;;5006570;28;20488;-74
2023/04/21 00:20:14;;;;;;;19.90;16.48;;;;;;;;;;5005494;28;20447;-76
2023/04/21 00:22:39;;;;;;;29.38;19.70;;;;;;;;;;5013285;28;20351;-73
2023/04/21 00:25:05;;;;;;;21.58;16.60;;;;;;;;;;5016622;28;20059;-73
2023/04/21 00:27:30;;;;;;;16.48;13.60;;;;;;;;;;5017392;28;20021;-72
2023/04/21 00:29:55;;;;;;;15.35;13.10;;;;;;;;;;5016697;28;20025;-75
2023/04/21 00:32:21;;;;;;;14.20;12.02;;;;;;;;;;5016159;28;20025;-75
2023/04/21 00:34:46;;;;;;;14.35;12.15;;;;;;;;;;5009723;28;20429;-73
2023/04/21 00:37:11;;;;;;;14.20;12.70;;;;;;;;;;5011428;28;20025;-72
2023/04/21 00:39:37;;;;;;;13.02;11.65;;;;;;;;;;5015868;28;20031;-76
2023/04/21 00:42:02;;;;;;;13.73;12.20;;;;;;;;;;5015931;28;20133;-73
2023/04/21 00:44:27;;;;;;;14.48;12.98;;;;;;;;;;5016852;28;20029;-73
2023/04/21 00:46:53;;;;;;;14.35;12.85;;;;;;;;;;5011731;28;20026;-71
2023/04/21 00:49:18;;;;;;;15.00;12.15;;;;;;;;;;5002167;28;20038;-72
2023/04/21 00:51:44;;;;;;;17.73;13.80;;;;;;;;;;5007057;28;20030;-72
2023/04/21 00:54:10;;;;;;;20.27;14.63;;;;;;;;;;5016668;28;20030;-71
2023/04/21 00:56:36;;;;;;;17.73;14.73;;;;;;;;;;5012476;28;20089;-72
2023/04/21 00:59:01;;;;;;;16.75;14.85;;;;;;;;;;5014427;28;21292;-73
2023/04/21 01:01:28;;;;;;;18.52;13.90;;;;;;;;;;5002268;28;20021;-71
2023/04/21 01:03:56;;;;;;;16.75;14.95;;;;;;;;;;5014071;28;20045;-71
2023/04/21 01:06:21;;;;;;;19.50;16.02;;;;;;;;;;5011042;28;20302;-74
2023/04/21 01:08:47;;;;;;;24.25;19.85;;;;;;;;;;5005738;28;20471;-72
2023/04/21 01:11:13;;;;;;;17.52;15.57;;;;;;;;;;5013289;28;20030;-73
2023/04/21 01:13:38;;;;;;;25.08;19.70;;;;;;;;;;5014851;28;20084;-72
2023/04/21 01:16:04;;;;;;;24.67;18.38;;;;;;;;;;5013868;28;20023;-71
2023/04/21 01:18:30;;;;;;;18.98;16.50;;;;;;;;;;5001072;28;20098;-72
2023/04/21 01:20:57;;;;;;;18.65;16.67;;;;;;;;;;5008685;28;20041;-72
2023/04/21 01:23:22;;;;;;;22.67;17.02;;;;;;;;;;5003775;28;20029;-73
2023/04/21 01:25:49;;;;;;;19.90;16.77;;;;;;;;;;5013729;28;20032;-75
2023/04/21 01:28:14;;;;;;;20.15;16.50;;;;;;;;;;5014475;28;20451;-71
2023/04/21 01:30:39;;;;;;;22.27;15.90;;;;;;;;;;5013131;28;20029;-72
2023/04/21 01:33:05;;;;;;;19.02;16.77;;;;;;;;;;5014432;28;20033;-71
2023/04/21 01:35:30;;;;;;;19.35;16.17;;;;;;;;;;5015300;28;20423;-73
2023/04/21 01:37:55;;;;;;;21.38;16.05;;;;;;;;;;5008869;28;20109;-72
2023/04/21 01:40:21;;;;;;;16.95;15.25;;;;;;;;;;5008961;28;20041;-77
2023/04/21 01:42:46;;;;;;;21.35;14.32;;;;;;;;;;5013144;28;20038;-73
2023/04/21 01:45:12;;;;;;;15.70;12.77;;;;;;;;;;5007500;28;20429;-74
2023/04/21 01:47:37;;;;;;;14.88;12.75;;;;;;;;;;5017810;28;20029;-73
2023/04/21 01:50:02;;;;;;;14.50;13.00;;;;;;;;;;5004893;28;20039;-73
2023/04/21 01:52:28;;;;;;;14.60;12.95;;;;;;;;;;5013282;28;20057;-73
2023/04/21 01:54:54;;;;;;;16.23;13.07;;;;;;;;;;5013765;28;20097;-72
2023/04/21 01:57:19;;;;;;;14.93;13.05;;;;;;;;;;5014165;28;20033;-74
2023/04/21 01:59:45;;;;;;;15.93;13.18;;;;;;;;;;5007183;28;20026;-77
2023/04/21 02:02:10;;;;;;;19.58;13.82;;;;;;;;;;5003269;28;20449;-74
2023/04/21 02:04:36;;;;;;;18.48;14.43;;;;;;;;;;5008063;28;20036;-72
2023/04/21 02:07:01;;;;;;;18.92;14.85;;;;;;;;;;5006638;28;20029;-74
2023/04/21 02:09:26;;;;;;;15.63;13.52;;;;;;;;;;5012894;28;20082;-73
2023/04/21 02:11:52;;;;;;;12.85;11.52;;;;;;;;;;5014806;28;20041;-72
2023/04/21 02:14:17;;;;;;;14.27;12.82;;;;;;;;;;5002725;28;20037;-72
2023/04/21 02:16:42;;;;;;;15.52;13.32;;;;;;;;;;5006966;28;20040;-74
2023/04/21 02:19:08;;;;;;;15.63;13.10;;;;;;;;;;5015751;28;20021;-75
2023/04/21 02:21:33;;;;;;;18.63;14.70;;;;;;;;;;5014918;28;20085;-72
2023/04/21 02:23:58;;;;;;;16.77;13.75;;;;;;;;;;5014825;28;20025;-72
2023/04/21 02:26:24;;;;;;;15.10;13.48;;;;;;;;;;5004735;28;20037;-76
2023/04/21 02:28:50;;;;;;;15.70;13.27;;;;;;;;;;5011444;28;20121;-73
2023/04/21 02:31:18;;;;;;;14.40;12.90;;;;;;;;;;5013005;28;20044;-74
2023/04/21 02:33:43;;;;;;;16.48;13.68;;;;;;;;;;5011207;28;20166;-71
2023/04/21 02:36:09;;;;;;;14.18;12.75;;;;;;;;;;5003871;28;20782;-76
2023/04/21 02:38:34;;;;;;;15.27;12.50;;;;;;;;;;5014374;28;20048;-72
2023/04/21 02:41:00;;;;;;;14.82;13.20;;;;;;;;;;5013742;28;20548;-71
2023/04/21 02:43:25;;;;;;;14.95;13.52;;;;;;;;;;5013537;28;20030;-71
2023/04/21 02:45:51;;;;;;;13.60;12.35;;;;;;;;;;5005587;28;20495;-72
2023/04/21 02:48:21;;;;;;;13.80;12.07;;;;;;;;;;5011392;28;20026;-71
2023/04/21 02:50:47;;;;;;;15.75;13.45;;;;;;;;;;5004087;28;20117;-72
2023/04/21 02:53:12;;;;;;;20.33;16.17;;;;;;;;;;5012299;28;20112;-71
2023/04/21 02:55:37;;;;;;;16.30;14.43;;;;;;;;;;5012713;28;20025;-72
2023/04/21 02:58:03;;;;;;;13.23;11.90;;;;;;;;;;5012890;28;20022;-71
2023/04/21 03:00:28;;;;;;;13.85;12.48;;;;;;;;;;5013698;28;20040;-71
2023/04/21 03:02:53;;;;;;;14.07;11.82;;;;;;;;;;5012526;28;20051;-70
2023/04/21 03:05:19;;;;;;;15.13;13.43;;;;;;;;;;5008784;28;20492;-75
2023/04/21 03:07:45;;;;;;;14.75;12.88;;;;;;;;;;5006524;28;20430;-72
2023/04/21 03:10:10;;;;;;;13.80;12.25;;;;;;;;;;5012580;28;20023;-72
2023/04/21 03:12:36;;;;;;;15.63;13.88;;;;;;;;;;5014179;28;20033;-71
2023/04/21 03:15:01;;;;;;;15.82;14.13;;;;;;;;;;5012586;28;20030;-72
2023/04/21 03:17:27;;;;;;;15.05;13.50;;;;;;;;;;5003211;28;20106;-70
2023/04/21 03:19:52;;;;;;;15.57;13.45;;;;;;;;;;5012475;28;20037;-71
2023/04/21 03:22:17;;;;;;;15.70;12.82;;;;;;;;;;5014011;28;20601;-72
2023/04/21 03:24:43;;;;;;;14.57;12.93;;;;;;;;;;5014084;28;20550;-72
2023/04/21 03:27:08;;;;;;;16.25;13.48;;;;;;;;;;5012817;28;20461;-73
2023/04/21 03:29:34;;;;;;;14.82;13.23;;;;;;;;;;5011500;28;20060;-73
2023/04/21 03:32:00;;;;;;;14.88;13.15;;;;;;;;;;5012561;28;20064;-74
2023/04/21 03:34:26;;;;;;;14.65;12.73;;;;;;;;;;5006437;28;20066;-72
2023/04/21 03:36:51;;;;;;;15.23;13.45;;;;;;;;;;5008884;28;20026;-74
2023/04/21 03:39:16;;;;;;;15.45;13.80;;;;;;;;;;5011119;28;20492;-71
2023/04/21 03:41:42;;;;;;;18.50;16.50;;;;;;;;;;5002688;28;20468;-71
2023/04/21 03:44:07;;;;;;;18.10;15.60;;;;;;;;;;5014536;28;20468;-75
2023/04/21 03:46:32;;;;;;;17.30;14.55;;;;;;;;;;5011695;28;20034;-73
2023/04/21 03:48:58;;;;;;;14.35;12.85;;;;;;;;;;5012718;28;20024;-72
2023/04/21 03:51:23;;;;;;;14.45;12.95;;;;;;;;;;5000456;28;20509;-74
2023/04/21 03:53:48;;;;;;;14.52;12.57;;;;;;;;;;4996022;28;20049;-71
2023/04/21 03:56:14;;;;;;;16.05;13.23;;;;;;;;;;4999024;28;20029;-72
2023/04/21 03:58:39;;;;;;;14.80;12.55;;;;;;;;;;4996647;28;20030;-72
2023/04/21 04:01:05;;;;;;;14.00;12.60;;;;;;;;;;4998222;28;20030;-72
2023/04/21 04:03:31;;;;;;;17.10;14.50;;;;;;;;;;5000865;28;20440;-76
2023/04/21 04:05:56;;;;;;;22.38;16.92;;;;;;;;;;5013215;28;20037;-72
2023/04/21 04:08:21;;;;;;;33.08;24.65;;;;;;;;;;5014636;28;20321;-75
2023/04/21 04:10:47;;;;;;;20.13;17.38;;;;;;;;;;5012616;28;20093;-74
2023/04/21 04:13:12;;;;;;;15.35;13.77;;;;;;;;;;5002166;28;20034;-72
2023/04/21 04:15:37;;;;;;;15.70;13.98;;;;;;;;;;5012565;28;20037;-71
2023/04/21 04:18:03;;;;;;;18.35;15.63;;;;;;;;;;5013555;28;20037;-71
2023/04/21 04:20:28;;;;;;;18.90;15.73;;;;;;;;;;5011548;28;20036;-71
2023/04/21 04:22:54;;;;;;;19.13;17.20;;;;;;;;;;5013322;28;20125;-72
2023/04/21 04:25:20;;;;;;;23.83;18.52;;;;;;;;;;5002292;28;20838;-71
2023/04/21 04:27:45;;;;;;;21.88;19.50;;;;;;;;;;5013251;28;20055;-73
2023/04/21 04:30:12;;;;;;;28.35;23.63;;;;;;;;;;5002537;28;20029;-71
2023/04/21 04:32:38;;;;;;;36.38;28.13;;;;;;;;;;5014380;28;20036;-74
2023/04/21 04:35:07;;;;;;;22.15;18.52;;;;;;;;;;5015067;28;20110;-72
2023/04/21 04:37:35;;;;;;;20.65;17.77;;;;;;;;;;5003144;28;20026;-72
2023/04/21 04:40:00;;;;;;;24.48;19.70;;;;;;;;;;5003559;28;20479;-72
2023/04/21 04:42:25;;;;;;;21.63;18.48;;;;;;;;;;5006275;28;20034;-71
2023/04/21 04:44:53;;;;;;;37.80;27.15;;;;;;;;;;5002338;28;20893;-73
2023/04/21 04:47:19;;;;;;;27.73;21.25;;;;;;;;;;5003035;28;20377;-76
2023/04/21 04:49:44;;;;;;;30.27;21.85;;;;;;;;;;5016007;28;20014;-71
2023/04/21 04:52:10;;;;;;;24.48;20.98;;;;;;;;;;5014874;28;20048;-71
2023/04/21 04:54:35;;;;;;;23.13;19.20;;;;;;;;;;5013607;28;20447;-71
2023/04/21 04:57:01;;;;;;;17.98;15.00;;;;;;;;;;5015569;28;20159;-70
2023/04/21 04:59:26;;;;;;;19.88;16.23;;;;;;;;;;5015511;28;20041;-72
2023/04/21 05:01:52;;;;;;;17.30;15.43;;;;;;;;;;5014937;28;20022;-73
2023/04/21 05:04:17;;;;;;;25.65;20.48;;;;;;;;;;5015819;28;20165;-71
2023/04/21 05:06:43;;;;;;;18.20;15.73;;;;;;;;;;5014967;28;20467;-71
2023/04/21 05:09:09;;;;;;;20.88;18.42;;;;;;;;;;5012552;28;20424;-72
2023/04/21 05:11:34;;;;;;;24.25;21.40;;;;;;;;;;5015518;28;20026;-71
2023/04/21 05:13:59;;;;;;;25.38;19.75;;;;;;;;;;5007709;28;20037;-71
2023/04/21 05:16:25;;;;;;;18.90;16.58;;;;;;;;;;5002749;28;20222;-73
2023/04/21 05:18:52;;;;;;;16.73;14.68;;;;;;;;;;5002998;28;20094;-72
2023/04/21 05:21:26;;;;;;;17.55;13.90;;;;;;;;;;5004424;28;20021;-71
2023/04/21 05:23:51;;;;;;;23.38;18.00;;;;;;;;;;5011893;28;20026;-71
2023/04/21 05:26:17;;;;;;;21.05;17.50;;;;;;;;;;5013384;28;20340;-74
2023/04/21 05:28:42;;;;;;;19.92;15.93;;;;;;;;;;5015392;28;20132;-72
2023/04/21 05:31:07;;;;;;;21.52;16.88;;;;;;;;;;5013571;28;20072;-72
2023/04/21 05:33:33;;;;;;;23.52;20.90;;;;;;;;;;5010059;28;20058;-76
2023/04/21 05:35:58;;;;;;;21.80;17.60;;;;;;;;;;5001636;28;20065;-72
2023/04/21 05:38:26;;;;;;;20.95;17.27;;;;;;;;;;5010515;28;20447;-74
2023/04/21 05:40:52;;;;;;;20.58;17.48;;;;;;;;;;5014513;28;20033;-72
2023/04/21 05:43:17;;;;;;;17.30;15.48;;;;;;;;;;5008538;28;20037;-73
2023/04/21 05:45:43;;;;;;;24.52;17.80;;;;;;;;;;5015509;28;20090;-74
2023/04/21 05:48:08;;;;;;;29.58;21.35;;;;;;;;;;5014604;28;20068;-75
2023/04/21 05:50:34;;;;;;;28.45;19.65;;;;;;;;;;5002883;28;20044;-75
2023/04/21 05:52:59;;;;;;;21.70;16.90;;;;;;;;;;5012731;28;20044;-73
2023/04/21 05:55:25;;;;;;;43.13;24.08;;;;;;;;;;5016002;28;20405;-74
2023/04/21 05:57:50;;;;;;;28.25;18.17;;;;;;;;;;5014038;28;20417;-73
2023/04/21 06:00:16;;;;;;;19.02;12.88;;;;;;;;;;5013102;28;20029;-72
2023/04/21 06:02:41;;;;;;;26.95;19.50;;;;;;;;;;5010592;28;20028;-72
2023/04/21 06:05:06;;;;;;;36.33;21.67;;;;;;;;;;5005296;28;20032;-72
2023/04/21 06:07:32;;;;;;;21.55;15.68;;;;;;;;;;5014906;28;20026;-75
2023/04/21 06:09:57;;;;;;;36.95;25.63;;;;;;;;;;5016022;28;20108;-73
2023/04/21 06:12:23;;;;;;;33.55;21.38;;;;;;;;;;5014519;28;20022;-75
2023/04/21 06:14:48;;;;;;;27.98;17.63;;;;;;;;;;5013711;28;20136;-72
2023/04/21 06:17:17;;;;;;;15.75;13.32;;;;;;;;;;5014616;28;20044;-74
2023/04/21 06:19:42;;;;;;;25.65;21.08;;;;;;;;;;5015466;28;20078;-73
2023/04/21 06:22:08;;;;;;;20.17;15.13;;;;;;;;;;5013411;28;20033;-72
2023/04/21 06:24:33;;;;;;;25.88;19.73;;;;;;;;;;5013705;28;20021;-72
2023/04/21 06:26:58;;;;;;;19.88;15.65;;;;;;;;;;5012540;28;20021;-72
2023/04/21 06:29:24;;;;;;;16.92;14.43;;;;;;;;;;5012575;28;20441;-72
2023/04/21 06:31:49;;;;;;;21.75;17.55;;;;;;;;;;5013424;28;20040;-72
2023/04/21 06:34:15;;;;;;;47.15;31.92;;;;;;;;;;5014411;28;20564;-73
2023/04/21 06:36:40;;;;;;;57.33;36.08;;;;;;;;;;5013538;28;20037;-73
2023/04/21 06:39:05;;;;;;;23.13;20.38;;;;;;;;;;5013623;28;20022;-73
2023/04/21 06:41:31;;;;;;;20.05;14.88;;;;;;;;;;5014299;28;20013;-76
2023/04/21 06:43:56;;;;;;;17.88;12.82;;;;;;;;;;5014728;28;20420;-73
2023/04/21 06:46:21;;;;;;;17.52;13.68;;;;;;;;;;5012774;28;20085;-72
2023/04/21 06:48:47;;;;;;;31.95;25.90;;;;;;;;;;5014290;28;20112;-72
2023/04/21 06:51:12;;;;;;;18.73;13.50;;;;;;;;;;5014870;28;20022;-72
2023/04/21 06:53:37;;;;;;;16.63;13.48;;;;;;;;;;5014288;28;20041;-76
2023/04/21 06:56:03;;;;;;;15.75;13.68;;;;;;;;;;5013360;28;20037;-71
2023/04/21 06:58:28;;;;;;;22.33;19.65;;;;;;;;;;5014232;28;20116;-72
2023/04/21 07:00:53;;;;;;;17.67;12.50;;;;;;;;;;5013520;28;20018;-71
2023/04/21 07:03:19;;;;;;;20.98;18.15;;;;;;;;;;5016010;28;20428;-75
2023/04/21 07:05:44;;;;;;;27.77;20.30;;;;;;;;;;5011331;28;20154;-72
2023/04/21 07:08:10;;;;;;;28.38;23.60;;;;;;;;;;5014406;28;20439;-73
2023/04/21 07:10:35;;;;;;;25.17;19.65;;;;;;;;;;5012977;28;20029;-73
2023/04/21 07:13:00;;;;;;;30.33;24.63;;;;;;;;;;5013143;28;20098;-71
2023/04/21 07:15:26;;;;;;;17.30;13.68;;;;;;;;;;5008908;28;20057;-72
2023/04/21 07:17:51;;;;;;;24.90;14.50;;;;;;;;;;5004829;28;20060;-71
2023/04/21 07:20:17;;;;;;;13.85;11.40;;;;;;;;;;5014394;28;20026;-72
2023/04/21 07:22:43;;;;;;;21.85;14.00;;;;;;;;;;5010286;28;20118;-71
2023/04/21 07:25:08;;;;;;;18.20;16.23;;;;;;;;;;5011800;28;20040;-73
2023/04/21 07:27:35;;;;;;;14.73;13.23;;;;;;;;;;5012169;28;20153;-76
2023/04/21 07:30:01;;;;;;;23.30;18.63;;;;;;;;;;5014830;28;20089;-73
2023/04/21 07:32:26;;;;;;;13.85;12.27;;;;;;;;;;5013008;28;20022;-73
2023/04/21 07:34:52;;;;;;;13.52;12.20;;;;;;;;;;5012731;28;20044;-74
2023/04/21 07:37:17;;;;;;;14.57;12.55;;;;;;;;;;5015047;28;20029;-72
2023/04/21 07:39:42;;;;;;;17.25;13.00;;;;;;;;;;5013142;28;20025;-74
2023/04/21 07:42:09;;;;;;;17.55;14.05;;;;;;;;;;5012120;28;20211;-75
2023/04/21 07:44:35;;;;;;;19.55;16.27;;;;;;;;;;5013214;28;20030;-73
2023/04/21 07:47:00;;;;;;;17.20;15.43;;;;;;;;;;5014232;28;20026;-73
2023/04/21 07:49:26;;;;;;;14.55;13.05;;;;;;;;;;5012510;28;20032;-73
2023/04/21 07:51:51;;;;;;;16.38;13.68;;;;;;;;;;5004364;28;20377;-73
2023/04/21 07:54:16;;;;;;;15.73;13.43;;;;;;;;;;5009896;28;20352;-73
2023/04/21 07:56:42;;;;;;;14.07;10.82;;;;;;;;;;5010970;28;20365;-73
2023/04/21 07:59:07;;;;;;;14.35;12.85;;;;;;;;;;5012189;28;20021;-73
2023/04/21 08:01:32;;;;;;;14.68;12.13;;;;;;;;;;5011534;28;20117;-76
2023/04/21 08:03:58;;;;;;;15.35;13.60;;;;;;;;;;5011925;28;20532;-74
2023/04/21 08:06:23;;;;;;;18.52;15.95;;;;;;;;;;5013669;28;20033;-73
2023/04/21 08:08:49;;;;;;;15.23;13.60;;;;;;;;;;5014728;28;20061;-75
2023/04/21 08:11:14;;;;;;;14.25;10.73;;;;;;;;;;5016554;28;20075;-71
2023/04/21 08:13:41;;;;;;;13.02;10.20;;;;;;;;;;5016636;28;20037;-72
2023/04/21 08:16:06;;;;;;;15.45;12.63;;;;;;;;;;5016810;28;20045;-73
2023/04/21 08:18:31;;;;;;;13.73;10.68;;;;;;;;;;5016850;28;20029;-72
2023/04/21 08:20:57;;;;;;;12.93;10.52;;;;;;;;;;5015796;28;20105;-74
2023/04/21 08:23:22;;;;;;;13.73;12.13;;;;;;;;;;5015960;28;20082;-72
2023/04/21 08:25:48;;;;;;;19.55;10.27;;;;;;;;;;5014510;28;20443;-75
2023/04/21 08:28:14;;;;;;;16.95;12.00;;;;;;;;;;5016355;28;20053;-73
2023/04/21 08:30:40;;;;;;;11.55;9.80;;;;;;;;;;5017743;28;20541;-74
2023/04/21 08:33:07;;;;;;;13.05;9.63;;;;;;;;;;5016590;28;20033;-73
2023/04/21 08:35:33;;;;;;;14.65;10.10;;;;;;;;;;5017641;28;20040;-73
2023/04/21 08:37:58;;;;;;;16.35;13.63;;;;;;;;;;5015211;28;20022;-75
2023/04/21 08:40:31;;;;;;;11.07;8.20;;;;;;;;;;5015789;28;20067;-73
2023/04/21 08:42:56;;;;;;;13.20;9.57;;;;;;;;;;5014173;28;20086;-73
2023/04/21 08:45:21;;;;;;;11.57;8.55;;;;;;;;;;5016934;28;20301;-72
2023/04/21 08:47:48;;;;;;;25.30;15.32;;;;;;;;;;5015243;28;20429;-76
2023/04/21 08:50:13;;;;;;;16.95;9.70;;;;;;;;;;5015465;28;20508;-73
2023/04/21 08:52:39;;;;;;;28.15;20.17;;;;;;;;;;5014946;28;20063;-76
2023/04/21 08:55:06;;;;;;;20.75;11.40;;;;;;;;;;5017583;28;20356;-73
2023/04/21 08:57:31;;;;;;;12.50;8.93;;;;;;;;;;5012138;28;20461;-74
2023/04/21 08:59:56;;;;;;;15.00;9.02;;;;;;;;;;5011016;28;20040;-72
2023/04/21 09:02:22;;;;;;;12.35;8.07;;;;;;;;;;5012060;28;20022;-73
2023/04/21 09:04:49;;;;;;;19.40;11.85;;;;;;;;;;5017355;28;20041;-72
2023/04/21 09:07:31;;;;;;;13.05;9.55;;;;;;;;;;5013690;28;20364;-74
2023/04/21 09:09:57;;;;;;;15.60;11.45;;;;;;;;;;5014904;28;20457;-74
2023/04/21 09:12:23;;;;;;;19.48;14.02;;;;;;;;;;5012782;28;20032;-72
2023/04/21 09:14:48;;;;;;;13.32;9.75;;;;;;;;;;5015486;28;20045;-73
2023/04/21 09:17:15;;;;;;;10.07;8.38;;;;;;;;;;5014125;28;20405;-77
2023/04/21 09:19:40;;;;;;;13.48;8.98;;;;;;;;;;5013778;28;20089;-74
2023/04/21 09:22:05;;;;;;;14.25;10.85;;;;;;;;;;5014919;28;20038;-73
2023/04/21 09:24:31;;;;;;;15.77;9.00;;;;;;;;;;5015071;28;20337;-74
2023/04/21 09:26:56;;;;;;;12.15;8.20;;;;;;;;;;5014848;28;20387;-72
2023/04/21 09:29:22;;;;;;;13.93;9.57;;;;;;;;;;5017171;28;20368;-73
2023/04/21 09:31:48;;;;;;;16.23;10.70;;;;;;;;;;5007758;28;20083;-72
2023/04/21 09:34:17;;;;;;;16.65;9.85;;;;;;;;;;5012053;28;20409;-72
2023/04/21 09:36:44;;;;;;;12.77;7.72;;;;;;;;;;5014588;28;20460;-71
2023/04/21 09:39:11;;;;;;;13.88;7.93;;;;;;;;;;5013805;28;20029;-72
2023/04/21 09:41:37;;;;;;;11.57;9.48;;;;;;;;;;5013568;28;20022;-75
2023/04/21 09:44:03;;;;;;;14.32;9.15;;;;;;;;;;5016732;28;20048;-72
2023/04/21 09:46:31;;;;;;;18.85;13.25;;;;;;;;;;5015896;28;20064;-72
2023/04/21 09:48:59;;;;;;;12.82;9.93;;;;;;;;;;5015583;28;20038;-73
2023/04/21 09:51:25;;;;;;;16.02;12.82;;;;;;;;;;5012820;28;20036;-72
2023/04/21 09:53:52;;;;;;;13.07;11.68;;;;;;;;;;5015203;28;20114;-72
2023/04/21 09:56:20;;;;;;;11.70;8.75;;;;;;;;;;5015045;28;20116;-73
2023/04/21 09:58:49;;;;;;;16.33;8.32;;;;;;;;;;5014624;28;20118;-73
2023/04/21 10:01:15;;;;;;;19.92;15.43;;;;;;;;;;5015096;28;20125;-73
2023/04/21 10:03:42;;;;;;;12.20;9.73;;;;;;;;;;5013149;28;20134;-74
2023/04/21 10:06:07;;;;;;;18.00;10.57;;;;;;;;;;5015180;28;20017;-71
2023/04/21 10:08:33;;;;;;;13.43;9.15;;;;;;;;;;5013447;28;20472;-74
2023/04/21 10:10:59;;;;;;;10.63;8.40;;;;;;;;;;5014706;28;20034;-75
2023/04/21 10:13:24;;;;;;;12.98;8.13;;;;;;;;;;5015672;28;20509;-73
2023/04/21 10:15:59;;;;;;;12.45;8.45;;;;;;;;;;5015070;28;20033;-74
2023/04/21 10:18:27;;;;;;;12.85;7.47;;;;;;;;;;5013933;28;20034;-75
2023/04/21 10:20:56;;;;;;;13.02;6.57;;;;;;;;;;5014649;28;20078;-73
2023/04/21 10:23:26;;;;;;;13.60;7.25;;;;;;;;;;5015101;28;20048;-75
2023/04/21 10:25:51;;;;;;;12.15;7.65;;;;;;;;;;5014233;28;20029;-76
2023/04/21 10:28:17;;;;;;;12.98;8.40;;;;;;;;;;5015213;28;20067;-73
2023/04/21 10:30:42;;;;;;;13.43;7.40;;;;;;;;;;5014905;28;20025;-78
2023/04/21 10:33:08;;;;;;;17.48;7.40;;;;;;;;;;5015259;28;20042;-74
2023/04/21 10:35:52;;;;;;;11.52;6.50;;;;;;;;;;5014371;28;20429;-73
2023/04/21 10:38:36;;;;;;;10.35;6.65;;;;;;;;;;5014308;28;20417;-74
2023/04/21 10:41:21;;;;;;;13.38;7.82;;;;;;;;;;5014761;28;20013;-76
2023/04/21 10:43:49;;;;;;;9.07;6.60;;;;;;;;;;5014228;28;20100;-74
2023/04/21 10:46:30;;;;;;;10.95;6.63;;;;;;;;;;5014764;28;20032;-75
2023/04/21 10:49:03;;;;;;;12.55;7.20;;;;;;;;;;5013336;28;20033;-73
2023/04/21 10:51:31;;;;;;;9.75;7.13;;;;;;;;;;5012118;28;20105;-75
2023/04/21 10:53:57;;;;;;;9.75;6.90;;;;;;;;;;5012346;28;20029;-73
2023/04/21 10:56:22;;;;;;;11.35;6.05;;;;;;;;;;5012783;28;20502;-74
2023/04/21 10:58:48;;;;;;;9.10;6.35;;;;;;;;;;5014103;28;20462;-74
2023/04/21 11:01:14;;;;;;;13.27;6.72;;;;;;;;;;5013389;28;20082;-76
2023/04/21 11:03:39;;;;;;;9.75;7.35;;;;;;;;;;5015550;28;20034;-73
2023/04/21 11:06:14;;;;;;;13.38;8.27;;;;;;;;;;5014351;28;20112;-74
2023/04/21 11:08:55;;;;;;;8.52;6.03;;;;;;;;;;5013557;28;20034;-76
2023/04/21 11:11:22;;;;;;;10.63;5.85;;;;;;;;;;5012726;28;20025;-74
2023/04/21 11:13:48;;;;;;;10.70;5.90;;;;;;;;;;5013818;28;20112;-76
2023/04/21 11:16:13;;;;;;;12.88;7.38;;;;;;;;;;5013455;28;20105;-74
2023/04/21 11:18:40;;;;;;;12.40;7.80;;;;;;;;;;5014094;28;20104;-76
2023/04/21 11:21:16;;;;;;;11.27;8.43;;;;;;;;;;5011716;28;20022;-74
2023/04/21 11:23:47;;;;;;;10.32;6.32;;;;;;;;;;5014895;28;20044;-74
2023/04/21 11:26:12;;;;;;;10.57;6.82;;;;;;;;;;5011766;28;20513;-75
2023/04/21 11:28:39;;;;;;;10.10;7.28;;;;;;;;;;5013670;28;20054;-73
2023/04/21 11:31:04;;;;;;;9.43;5.38;;;;;;;;;;5013348;28;20018;-73
2023/04/21 11:33:34;;;;;;;14.18;8.20;;;;;;;;;;5013018;28;20498;-73
2023/04/21 11:36:02;;;;;;;17.35;9.15;;;;;;;;;;5013315;28;20365;-72
2023/04/21 11:38:35;;;;;;;9.95;6.75;;;;;;;;;;5012963;28;20029;-74
2023/04/21 11:41:00;;;;;;;11.70;6.28;;;;;;;;;;5014444;28;20455;-74
2023/04/21 11:43:26;;;;;;;11.02;6.05;;;;;;;;;;5015867;28;20041;-73
2023/04/21 11:45:51;;;;;;;11.18;6.50;;;;;;;;;;5017482;28;20037;-74
2023/04/21 11:48:18;;;;;;;12.07;6.75;;;;;;;;;;5014640;28;20381;-73
2023/04/21 11:50:47;;;;;;;10.95;6.75;;;;;;;;;;5003399;28;20036;-75
2023/04/21 11:53:13;;;;;;;14.23;5.57;;;;;;;;;;5002086;28;20065;-73
2023/04/21 11:55:43;;;;;;;16.58;7.22;;;;;;;;;;4999529;28;20057;-74
2023/04/21 11:58:09;;;;;;;10.35;7.95;;;;;;;;;;5001332;28;20330;-72
2023/04/21 12:00:35;;;;;;;10.30;6.57;;;;;;;;;;5003119;28;20025;-75
2023/04/21 12:03:00;;;;;;;9.82;5.70;;;;;;;;;;5004923;28;20025;-74
2023/04/21 12:05:33;;;;;;;10.52;5.80;;;;;;;;;;5003814;28;20890;-73
2023/04/21 12:07:58;;;;;;;12.23;6.38;;;;;;;;;;5004680;28;20496;-73
2023/04/21 12:10:24;;;;;;;11.02;6.32;;;;;;;;;;5004007;28;20436;-73
2023/04/21 12:12:50;;;;;;;9.85;4.95;;;;;;;;;;5002646;28;20386;-74
2023/04/21 12:15:21;;;;;;;7.70;5.20;;;;;;;;;;5004245;28;20034;-76
2023/04/21 12:17:47;;;;;;;9.85;5.43;;;;;;;;;;5003262;28;20026;-75
2023/04/21 12:20:20;;;;;;;12.15;6.57;;;;;;;;;;5004315;28;20102;-72
2023/04/21 12:22:46;;;;;;;8.43;5.53;;;;;;;;;;5003970;28;20046;-73
2023/04/21 12:25:11;;;;;;;11.43;4.88;;;;;;;;;;5004349;28;20021;-74
2023/04/21 12:27:37;;;;;;;12.30;6.53;;;;;;;;;;5003567;28;20084;-75
2023/04/21 12:30:02;;;;;;;13.02;7.60;;;;;;;;;;5003382;28;20025;-73
2023/04/21 12:32:28;;;;;;;12.25;5.63;;;;;;;;;;5003384;28;20034;-74
2023/04/21 12:34:53;;;;;;;10.40;5.43;;;;;;;;;;5003258;28;20065;-74
2023/04/21 12:37:19;;;;;;;8.85;5.47;;;;;;;;;;5003498;28;20034;-73
2023/04/21 12:39:44;;;;;;;14.18;6.75;;;;;;;;;;5001948;28;20344;-73
2023/04/21 12:42:10;;;;;;;8.98;6.47;;;;;;;;;;5002264;28;20467;-74
2023/04/21 12:44:36;;;;;;;13.27;6.55;;;;;;;;;;5003200;28;20089;-73
2023/04/21 12:47:02;;;;;;;12.15;5.60;;;;;;;;;;5003404;28;20034;-74
2023/04/21 12:49:27;;;;;;;9.52;6.03;;;;;;;;;;4999953;28;20448;-73
2023/04/21 12:51:52;;;;;;;12.32;5.10;;;;;;;;;;5003151;28;20025;-75
2023/04/21 12:54:18;;;;;;;9.88;5.70;;;;;;;;;;5003374;28;20057;-71
2023/04/21 12:56:43;;;;;;;8.48;5.15;;;;;;;;;;5003835;28;20044;-73
2023/04/21 12:59:09;;;;;;;12.10;5.55;;;;;;;;;;5003022;28;20049;-73
2023/04/21 13:01:36;;;;;;;10.27;4.57;;;;;;;;;;5003694;28;20033;-74
2023/04/21 13:04:01;;;;;;;5.60;4.50;;;;;;;;;;5002030;28;20062;-74
2023/04/21 13:06:27;;;;;;;10.15;5.43;;;;;;;;;;5003661;28;20034;-76
2023/04/21 13:08:52;;;;;;;9.32;5.13;;;;;;;;;;5003576;28;20032;-74
2023/04/21 13:11:18;;;;;;;10.95;4.80;;;;;;;;;;5003913;28;20133;-73
2023/04/21 13:13:43;;;;;;;9.45;5.07;;;;;;;;;;5002624;28;20075;-75
2023/04/21 13:16:08;;;;;;;10.02;5.15;;;;;;;;;;5001727;28;20052;-73
2023/04/21 13:18:34;;;;;;;9.50;4.90;;;;;;;;;;5002195;28;20033;-73
2023/04/21 13:21:00;;;;;;;9.85;5.38;;;;;;;;;;5001974;28;20025;-74
2023/04/21 13:23:25;;;;;;;11.68;5.72;;;;;;;;;;5003636;28;20033;-74
2023/04/21 13:25:51;;;;;;;10.07;5.72;;;;;;;;;;5003819;28;20056;-73
2023/04/21 13:28:17;;;;;;;11.25;4.70;;;;;;;;;;5003241;28;20053;-74
2023/04/21 13:30:43;;;;;;;8.77;4.20;;;;;;;;;;5003584;28;20021;-71
2023/04/21 13:33:09;;;;;;;9.10;4.75;;;;;;;;;;4998714;28;20108;-75
2023/04/21 13:35:35;;;;;;;8.02;3.88;;;;;;;;;;5013775;28;20083;-72
2023/04/21 13:38:00;;;;;;;13.45;5.35;;;;;;;;;;5015079;28;20026;-72
2023/04/21 13:40:25;;;;;;;9.75;4.95;;;;;;;;;;5014004;28;20021;-76
2023/04/21 13:42:51;;;;;;;8.93;4.45;;;;;;;;;;5017160;28;20033;-72
2023/04/21 13:45:16;;;;;;;13.05;4.50;;;;;;;;;;5015604;28;20036;-71
2023/04/21 13:47:42;;;;;;;11.93;5.35;;;;;;;;;;5016654;28;20121;-72
2023/04/21 13:50:08;;;;;;;14.15;5.25;;;;;;;;;;5014086;28;20445;-72
2023/04/21 13:52:34;;;;;;;11.40;4.75;;;;;;;;;;5012400;28;20029;-72
2023/04/21 13:55:00;;;;;;;9.90;5.00;;;;;;;;;;5005186;28;20037;-72
2023/04/21 13:57:25;;;;;;;15.35;6.22;;;;;;;;;;5015495;28;20045;-75
2023/04/21 13:59:51;;;;;;;10.65;5.13;;;;;;;;;;5013277;28;20133;-73
2023/04/21 14:02:16;;;;;;;16.98;4.00;;;;;;;;;;5013716;28;20029;-73
2023/04/21 14:04:42;;;;;;;11.07;5.60;;;;;;;;;;5013314;28;20025;-71
2023/04/21 14:07:07;;;;;;;10.35;4.85;;;;;;;;;;5014014;28;20028;-72
2023/04/21 14:09:33;;;;;;;16.33;5.20;;;;;;;;;;5003911;28;20053;-74
2023/04/21 14:11:58;;;;;;;7.85;3.65;;;;;;;;;;5003129;28;20096;-75
2023/04/21 14:14:24;;;;;;;9.77;3.83;;;;;;;;;;5010902;28;20061;-74
2023/04/21 14:16:49;;;;;;;9.90;4.82;;;;;;;;;;5015559;28;20116;-72